createdAt,value
2022-09-07T00:01:01.889Z,15.00
2022-09-07T00:03:29.379Z,15.00
2022-09-07T00:05:56.821Z,14.90
2022-09-07T00:08:27.465Z,14.90
2022-09-07T00:11:02.693Z,14.80
2022-09-07T00:13:32.696Z,14.70
2022-09-07T00:16:07.815Z,14.70
2022-09-07T00:18:35.210Z,14.60
2022-09-07T00:21:05.792Z,14.60
2022-09-07T00:23:34.417Z,14.60
2022-09-07T00:26:02.831Z,14.50
2022-09-07T00:28:31.101Z,14.50
2022-09-07T00:30:58.268Z,14.40
2022-09-07T00:33:25.612Z,14.30
2022-09-07T00:35:52.649Z,14.30
2022-09-07T00:38:19.827Z,14.20
2022-09-07T00:40:46.630Z,14.10
2022-09-07T00:43:29.083Z,14.10
2022-09-07T00:45:56.058Z,14.10
2022-09-07T00:48:30.558Z,14.00
2022-09-07T00:51:10.713Z,13.90
2022-09-07T00:53:58.240Z,13.80
2022-09-07T00:56:28.665Z,13.70
2022-09-07T00:58:56.088Z,13.70
2022-09-07T01:01:24.113Z,13.60
2022-09-07T01:03:52.653Z,13.60
2022-09-07T01:06:23.777Z,13.50
2022-09-07T01:08:51.048Z,13.40
2022-09-07T01:11:22.979Z,13.40
2022-09-07T01:13:54.408Z,13.40
2022-09-07T01:16:37.728Z,13.40
2022-09-07T01:19:29.411Z,13.40
2022-09-07T01:22:18.325Z,13.40
2022-09-07T01:25:03.103Z,13.40
2022-09-07T01:27:52.098Z,13.40
2022-09-07T01:30:20.843Z,13.30
2022-09-07T01:33:09.083Z,13.30
2022-09-07T01:35:54.715Z,13.30
2022-09-07T01:38:33.393Z,13.20
2022-09-07T01:41:16.487Z,13.20
2022-09-07T01:44:09.719Z,13.10
2022-09-07T01:47:07.746Z,13.00
2022-09-07T01:49:49.999Z,12.90
2022-09-07T01:52:31.342Z,12.80
2022-09-07T01:55:15.761Z,12.70
2022-09-07T01:57:59.381Z,12.70
2022-09-07T02:00:26.599Z,12.60
2022-09-07T02:03:06.814Z,12.60
2022-09-07T02:05:48.582Z,12.50
2022-09-07T02:08:27.004Z,12.50
2022-09-07T02:10:59.809Z,12.50
2022-09-07T02:13:38.943Z,12.50
2022-09-07T02:16:26.875Z,12.20
2022-09-07T02:18:59.829Z,12.20
2022-09-07T02:21:36.186Z,12.20
2022-09-07T02:24:12.007Z,12.10
2022-09-07T02:26:45.780Z,12.20
2022-09-07T02:29:15.588Z,12.10
2022-09-07T02:31:42.733Z,12.10
2022-09-07T02:34:09.866Z,12.20
2022-09-07T02:36:46.880Z,12.10
2022-09-07T02:39:14.006Z,12.00
2022-09-07T02:41:43.359Z,11.90
2022-09-07T02:44:21.873Z,11.80
2022-09-07T02:47:15.312Z,11.70
2022-09-07T02:49:45.114Z,11.60
2022-09-07T02:53:11.992Z,11.60
2022-09-07T02:56:09.751Z,11.60
2022-09-07T02:59:21.935Z,11.50
2022-09-07T03:02:13.642Z,11.50
2022-09-07T03:05:09.297Z,11.40
2022-09-07T03:08:14.052Z,11.40
2022-09-07T03:10:41.998Z,11.40
2022-09-07T03:13:19.097Z,11.50
2022-09-07T03:15:45.916Z,11.50
2022-09-07T03:18:13.104Z,11.40
2022-09-07T03:20:39.875Z,11.40
2022-09-07T03:23:06.754Z,11.40
2022-09-07T03:25:35.604Z,11.30
2022-09-07T03:28:02.817Z,11.30
2022-09-07T03:30:30.333Z,11.20
2022-09-07T03:32:57.598Z,11.20
2022-09-07T03:35:24.384Z,11.20
2022-09-07T03:37:51.262Z,11.10
2022-09-07T03:40:20.928Z,11.00
2022-09-07T03:42:50.938Z,11.00
2022-09-07T03:45:18.126Z,11.00
2022-09-07T03:47:47.930Z,11.00
2022-09-07T03:50:17.580Z,11.00
2022-09-07T03:52:47.194Z,11.00
2022-09-07T03:55:17.381Z,11.00
2022-09-07T03:57:44.284Z,11.00
2022-09-07T04:00:17.372Z,10.90
2022-09-07T04:02:44.259Z,10.90
2022-09-07T04:05:11.569Z,10.90
2022-09-07T04:07:38.503Z,10.90
2022-09-07T04:10:05.500Z,10.80
2022-09-07T04:12:32.392Z,10.80
2022-09-07T04:14:59.163Z,10.80
2022-09-07T04:17:25.975Z,10.80
2022-09-07T04:19:52.814Z,10.80
2022-09-07T04:22:19.858Z,10.80
2022-09-07T04:24:46.706Z,10.70
2022-09-07T04:27:13.507Z,10.70
2022-09-07T04:29:40.389Z,10.70
2022-09-07T04:32:07.202Z,10.70
2022-09-07T04:34:34.024Z,10.70
2022-09-07T04:37:00.941Z,10.60
2022-09-07T04:39:27.840Z,10.60
2022-09-07T04:41:56.676Z,10.60
2022-09-07T04:44:23.499Z,10.70
2022-09-07T04:46:51.243Z,10.70
2022-09-07T04:49:18.779Z,10.70
2022-09-07T04:51:45.814Z,10.80
2022-09-07T04:54:12.956Z,10.80
2022-09-07T04:56:39.761Z,10.80
2022-09-07T04:59:06.659Z,10.90
2022-09-07T05:01:33.774Z,10.90
2022-09-07T05:04:01.884Z,11.00
2022-09-07T05:06:29.074Z,11.00
2022-09-07T05:08:56.775Z,11.00
2022-09-07T05:11:28.833Z,11.10
2022-09-07T05:14:01.547Z,11.10
2022-09-07T05:16:31.427Z,11.20
2022-09-07T05:19:03.512Z,11.30
2022-09-07T05:21:34.956Z,11.40
2022-09-07T05:24:02.535Z,11.60
2022-09-07T05:26:31.844Z,11.70
2022-09-07T05:31:52.289Z,12.10
2022-09-07T05:34:34.512Z,12.20
2022-09-07T05:37:02.120Z,12.40
2022-09-07T05:39:31.610Z,12.60
2022-09-07T05:41:58.519Z,12.60
2022-09-07T05:47:07.711Z,13.00
2022-09-07T05:49:34.741Z,13.10
2022-09-07T05:52:04.240Z,13.30
2022-09-07T05:54:31.061Z,13.50
2022-09-07T05:56:57.907Z,13.60
2022-09-07T05:59:24.795Z,13.80
2022-09-07T06:01:56.359Z,14.00
2022-09-07T06:04:23.373Z,14.10
2022-09-07T06:07:17.635Z,14.30
2022-09-07T06:12:28.337Z,14.60
2022-09-07T06:14:55.160Z,14.60
2022-09-07T06:17:22.195Z,14.70
2022-09-07T06:19:50.386Z,14.80
2022-09-07T06:22:17.230Z,14.80
2022-09-07T06:24:44.037Z,14.90
2022-09-07T06:27:11.549Z,15.00
2022-09-07T06:29:38.603Z,15.00
2022-09-07T06:34:52.678Z,15.20
2022-09-07T06:37:19.462Z,15.30
2022-09-07T06:39:47.861Z,15.50
2022-09-07T06:42:17.104Z,15.60
2022-09-07T06:44:44.701Z,15.80
2022-09-07T06:47:12.077Z,16.00
2022-09-07T06:49:38.917Z,16.10
2022-09-07T06:52:05.704Z,16.30
2022-09-07T06:57:19.264Z,16.50
2022-09-07T06:59:46.026Z,16.60
2022-09-07T07:02:15.516Z,16.60
2022-09-07T07:04:42.365Z,16.80
2022-09-07T07:07:12.945Z,16.90
2022-09-07T07:09:44.188Z,16.90
2022-09-07T07:12:14.320Z,16.90
2022-09-07T07:14:44.956Z,16.90
2022-09-07T07:17:12.554Z,16.90
2022-09-07T07:19:39.595Z,16.90
2022-09-07T07:24:53.517Z,16.90
2022-09-07T07:27:23.132Z,17.00
2022-09-07T07:29:50.016Z,17.10
2022-09-07T07:32:16.989Z,17.20
2022-09-07T07:34:43.810Z,17.30
2022-09-07T07:37:11.318Z,17.40
2022-09-07T07:42:25.782Z,17.60
2022-09-07T07:47:39.616Z,17.80
2022-09-07T07:55:46.286Z,18.10
2022-09-07T07:58:13.092Z,18.20
2022-09-07T08:00:53.716Z,18.30
2022-09-07T08:03:26.600Z,18.40
2022-09-07T08:05:54.788Z,18.50
2022-09-07T08:08:23.238Z,18.60
2022-09-07T08:10:50.534Z,18.70
2022-09-07T08:13:22.008Z,18.80
2022-09-07T08:15:52.081Z,19.00
2022-09-07T08:18:19.023Z,19.10
2022-09-07T08:20:45.867Z,19.10
2022-09-07T08:23:13.546Z,19.20
2022-09-07T08:25:49.649Z,19.30
2022-09-07T08:28:16.614Z,19.40
2022-09-07T08:30:43.898Z,19.50
2022-09-07T08:33:10.789Z,19.50
2022-09-07T08:35:37.537Z,19.60
2022-09-07T08:38:04.235Z,19.70
2022-09-07T08:40:33.156Z,19.80
2022-09-07T08:43:37.344Z,19.90
2022-09-07T08:46:49.046Z,20.20
2022-09-07T08:49:33.355Z,20.40
2022-09-07T08:52:04.003Z,20.50
2022-09-07T08:54:31.277Z,20.60
2022-09-07T08:59:57.727Z,20.80
2022-09-07T09:02:28.203Z,20.80
2022-09-07T09:07:56.230Z,20.90
2022-09-07T09:10:53.414Z,21.10
2022-09-07T09:14:02.550Z,21.30
2022-09-07T09:16:32.518Z,21.40
2022-09-07T09:19:15.902Z,21.50
2022-09-07T09:21:43.413Z,21.70
2022-09-07T09:24:19.260Z,21.80
2022-09-07T09:26:52.697Z,22.00
2022-09-07T09:29:27.406Z,22.10
2022-09-07T09:31:54.319Z,22.20
2022-09-07T09:34:25.548Z,22.30
2022-09-07T09:36:56.753Z,22.50
2022-09-07T09:39:31.161Z,22.80
2022-09-07T09:42:10.108Z,22.80
2022-09-07T09:44:40.691Z,22.90
2022-09-07T09:47:33.654Z,23.00
2022-09-07T09:53:06.163Z,23.30
2022-09-07T09:55:36.544Z,23.30
2022-09-07T10:01:27.080Z,23.50
2022-09-07T10:03:55.394Z,23.60
2022-09-07T10:06:23.024Z,23.70
2022-09-07T10:09:00.355Z,23.60
2022-09-07T10:12:06.754Z,23.60
2022-09-07T10:14:44.985Z,23.70
2022-09-07T10:17:13.478Z,23.70
2022-09-07T10:19:42.689Z,23.70
2022-09-07T10:22:35.777Z,23.60
2022-09-07T10:25:25.007Z,23.40
2022-09-07T10:28:08.528Z,23.40
2022-09-07T10:31:17.016Z,23.30
2022-09-07T10:34:26.758Z,23.40
2022-09-07T10:37:01.225Z,23.70
2022-09-07T10:39:43.674Z,23.60
2022-09-07T10:42:28.903Z,23.60
2022-09-07T10:45:10.414Z,23.70
2022-09-07T10:48:03.617Z,23.80
2022-09-07T10:50:33.652Z,23.80
2022-09-07T10:53:40.253Z,23.80
2022-09-07T10:56:25.055Z,23.90
2022-09-07T10:59:05.664Z,24.10
2022-09-07T11:01:50.729Z,24.20
2022-09-07T11:04:26.176Z,24.20
2022-09-07T11:07:03.304Z,24.30
2022-09-07T11:10:01.651Z,24.40
2022-09-07T11:12:39.035Z,24.40
2022-09-07T11:15:23.524Z,24.30
2022-09-07T11:18:14.402Z,24.30
2022-09-07T11:20:58.817Z,24.50
2022-09-07T11:23:44.166Z,24.50
2022-09-07T11:26:28.763Z,24.50
2022-09-07T11:31:56.043Z,24.50
2022-09-07T11:34:47.700Z,24.60
2022-09-07T11:37:26.499Z,24.80
2022-09-07T11:39:58.331Z,25.00
2022-09-07T11:42:45.720Z,25.00
2022-09-07T11:45:39.857Z,25.10
2022-09-07T11:48:30.272Z,25.30
2022-09-07T11:51:07.534Z,25.40
2022-09-07T11:53:39.343Z,25.50
2022-09-07T11:56:19.094Z,25.70
2022-09-07T11:58:54.826Z,25.70
2022-09-07T12:01:50.650Z,25.60
2022-09-07T12:04:56.563Z,25.50
2022-09-07T12:07:59.898Z,25.30
2022-09-07T12:10:38.582Z,25.30
2022-09-07T12:13:37.490Z,25.30
2022-09-07T12:16:10.690Z,25.10
2022-09-07T12:19:08.827Z,25.00
2022-09-07T12:21:42.916Z,24.90
2022-09-07T12:24:37.157Z,24.90
2022-09-07T12:27:21.968Z,25.10
2022-09-07T12:30:11.810Z,25.20
2022-09-07T12:32:55.248Z,25.40
2022-09-07T12:35:42.252Z,25.40
2022-09-07T12:38:18.121Z,25.60
2022-09-07T12:40:59.747Z,25.60
2022-09-07T12:43:36.586Z,25.70
2022-09-07T12:46:03.696Z,25.90
2022-09-07T12:48:51.336Z,25.90
2022-09-07T12:54:26.589Z,26.10
2022-09-07T12:57:29.994Z,26.00
2022-09-07T13:00:16.522Z,26.10
2022-09-07T13:02:59.739Z,26.20
2022-09-07T13:06:11.451Z,26.90
2022-09-07T13:09:14.240Z,27.30
2022-09-07T13:11:41.628Z,28.90
2022-09-07T13:14:14.988Z,30.90
2022-09-07T13:19:46.773Z,31.90
2022-09-07T13:22:35.132Z,31.40
2022-09-07T13:25:12.875Z,32.10
2022-09-07T13:28:00.826Z,31.50
2022-09-07T13:30:39.584Z,30.30
2022-09-07T13:33:24.961Z,29.50
2022-09-07T13:35:54.283Z,29.10
2022-09-07T13:38:24.003Z,29.50
2022-09-07T13:40:52.681Z,29.90
2022-09-07T13:43:24.244Z,31.00
2022-09-07T13:45:54.224Z,32.10
2022-09-07T13:48:27.116Z,32.20
2022-09-07T13:51:23.708Z,32.40
2022-09-07T13:53:56.802Z,31.60
2022-09-07T13:56:44.760Z,30.60
2022-09-07T13:59:22.341Z,29.50
2022-09-07T14:01:50.816Z,29.10
2022-09-07T14:04:39.319Z,29.20
2022-09-07T14:07:13.670Z,29.70
2022-09-07T14:09:40.479Z,29.70
2022-09-07T14:12:20.148Z,29.30
2022-09-07T14:15:09.274Z,29.10
2022-09-07T14:17:40.062Z,30.40
2022-09-07T14:20:12.795Z,31.90
2022-09-07T14:22:40.151Z,32.90
2022-09-07T14:25:08.244Z,34.00
2022-09-07T14:27:37.776Z,34.30
2022-09-07T14:30:33.031Z,34.00
2022-09-07T14:33:04.667Z,34.70
2022-09-07T14:35:38.536Z,35.20
2022-09-07T14:38:13.687Z,35.60
2022-09-07T14:40:41.447Z,35.70
2022-09-07T14:43:28.555Z,36.10
2022-09-07T14:46:15.894Z,35.20
2022-09-07T14:48:45.411Z,35.40
2022-09-07T14:51:35.260Z,35.20
2022-09-07T14:54:06.787Z,35.00
2022-09-07T14:56:36.382Z,34.80
2022-09-07T14:59:42.610Z,35.00
2022-09-07T15:02:23.079Z,35.20
2022-09-07T15:05:16.424Z,35.10
2022-09-07T15:07:50.788Z,34.40
2022-09-07T15:10:21.040Z,34.90
2022-09-07T15:12:53.615Z,35.10
2022-09-07T15:15:26.953Z,34.40
2022-09-07T15:18:01.902Z,34.40
2022-09-07T15:20:32.771Z,34.50
2022-09-07T15:22:59.679Z,33.80
2022-09-07T15:25:26.859Z,32.70
2022-09-07T15:27:54.780Z,31.10
2022-09-07T15:30:21.678Z,30.10
2022-09-07T15:32:49.500Z,29.40
2022-09-07T15:35:16.516Z,29.00
2022-09-07T15:40:56.464Z,27.60
2022-09-07T15:43:28.498Z,27.30
2022-09-07T15:45:55.957Z,27.00
2022-09-07T15:48:26.705Z,26.90
2022-09-07T15:54:12.893Z,26.70
2022-09-07T15:56:40.909Z,26.60
2022-09-07T15:59:07.883Z,26.40
2022-09-07T16:04:24.134Z,26.20
2022-09-07T16:06:51.499Z,26.10
2022-09-07T16:09:21.798Z,26.00
2022-09-07T16:11:50.875Z,25.90
2022-09-07T16:14:18.097Z,25.70
2022-09-07T16:19:34.895Z,25.60
2022-09-07T16:22:03.080Z,25.40
2022-09-07T16:24:30.156Z,25.30
2022-09-07T16:26:57.043Z,25.20
2022-09-07T16:29:24.755Z,25.00
2022-09-07T16:34:39.809Z,25.00
2022-09-07T16:37:07.298Z,24.90
2022-09-07T16:39:37.313Z,24.80
2022-09-07T16:42:04.413Z,24.90
2022-09-07T16:44:31.190Z,24.90
2022-09-07T16:46:57.936Z,24.90
2022-09-07T16:49:24.665Z,24.90
2022-09-07T16:51:52.212Z,24.80
2022-09-07T16:54:21.026Z,24.60
2022-09-07T16:56:47.904Z,24.60
2022-09-07T16:59:20.209Z,24.50
2022-09-07T17:01:47.984Z,24.40
2022-09-07T17:04:14.927Z,24.40
2022-09-07T17:06:41.784Z,24.30
2022-09-07T17:09:10.473Z,24.20
2022-09-07T17:11:37.598Z,24.10
2022-09-07T17:14:06.545Z,23.90
2022-09-07T17:16:39.300Z,23.90
2022-09-07T17:21:57.716Z,23.50
2022-09-07T17:24:24.935Z,23.30
2022-09-07T17:26:51.887Z,23.10
2022-09-07T17:29:18.713Z,22.90
2022-09-07T17:34:32.394Z,22.60
2022-09-07T17:37:00.614Z,22.40
2022-09-07T17:39:28.047Z,22.30
2022-09-07T17:41:55.079Z,22.10
2022-09-07T17:44:23.285Z,22.00
2022-09-07T17:46:54.125Z,21.90
2022-09-07T17:49:21.123Z,21.70
2022-09-07T17:51:48.358Z,21.60
2022-09-07T17:54:19.198Z,21.50
2022-09-07T17:56:46.228Z,21.40
2022-09-07T18:02:00.992Z,21.20
2022-09-07T18:04:28.842Z,21.10
2022-09-07T18:06:56.202Z,21.00
2022-09-07T18:09:23.184Z,20.80
2022-09-07T18:11:50.836Z,20.80
2022-09-07T18:14:19.003Z,20.70
2022-09-07T18:16:48.964Z,20.60
2022-09-07T18:19:18.272Z,20.50
2022-09-07T18:21:47.705Z,20.50
2022-09-07T18:24:17.830Z,20.40
2022-09-07T18:26:50.082Z,20.40
2022-09-07T18:29:31.355Z,20.30
2022-09-07T18:32:00.614Z,20.30
2022-09-07T18:34:28.856Z,20.20
2022-09-07T18:36:57.302Z,20.20
2022-09-07T18:39:25.275Z,20.10
2022-09-07T18:41:54.665Z,20.10
2022-09-07T18:47:08.977Z,19.90
2022-09-07T18:49:35.814Z,19.90
2022-09-07T18:54:50.623Z,19.70
2022-09-07T18:57:17.589Z,19.60
2022-09-07T18:59:44.587Z,19.60
2022-09-07T19:02:11.729Z,19.60
2022-09-07T19:07:29.552Z,19.40
2022-09-07T19:09:58.054Z,19.40
2022-09-07T19:12:24.892Z,19.30
2022-09-07T19:14:53.932Z,19.20
2022-09-07T19:17:22.631Z,19.20
2022-09-07T19:19:49.516Z,19.00
2022-09-07T19:22:16.241Z,18.90
2022-09-07T19:24:42.972Z,18.90
2022-09-07T19:27:09.713Z,18.80
2022-09-07T19:29:36.634Z,18.70
2022-09-07T19:32:07.557Z,18.60
2022-09-07T19:34:40.553Z,18.50
2022-09-07T19:37:09.312Z,18.40
2022-09-07T19:39:37.046Z,18.30
2022-09-07T19:42:05.623Z,18.30
2022-09-07T19:44:32.647Z,18.20
2022-09-07T19:47:00.456Z,18.10
2022-09-07T19:49:27.927Z,18.00
2022-09-07T19:51:54.863Z,17.90
2022-09-07T19:54:21.634Z,17.80
2022-09-07T19:56:48.389Z,17.80
2022-09-07T19:59:15.106Z,17.70
2022-09-07T20:01:46.078Z,17.70
2022-09-07T20:04:20.320Z,17.60
2022-09-07T20:06:49.925Z,17.50
2022-09-07T20:09:18.646Z,17.50
2022-09-07T20:11:47.480Z,17.50
2022-09-07T20:14:17.849Z,17.50
2022-09-07T20:16:46.983Z,17.40
2022-09-07T20:19:17.503Z,17.40
2022-09-07T20:21:44.288Z,17.30
2022-09-07T20:24:12.539Z,17.30
2022-09-07T20:26:40.373Z,17.20
2022-09-07T20:29:26.915Z,17.20
2022-09-07T20:31:59.312Z,17.20
2022-09-07T20:34:28.302Z,17.20
2022-09-07T20:36:55.258Z,17.20
2022-09-07T20:39:22.494Z,17.20
2022-09-07T20:41:49.717Z,17.20
2022-09-07T20:44:16.975Z,17.10
2022-09-07T20:46:44.139Z,16.90
2022-09-07T20:49:11.816Z,16.80
2022-09-07T20:51:38.926Z,16.70
2022-09-07T20:54:07.041Z,16.70
2022-09-07T20:56:34.038Z,16.70
2022-09-07T20:59:02.729Z,16.80
2022-09-07T21:01:31.511Z,16.70
2022-09-07T21:04:00.443Z,16.70
2022-09-07T21:06:28.285Z,16.70
2022-09-07T21:08:56.823Z,16.60
2022-09-07T21:11:26.582Z,16.60
2022-09-07T21:14:10.472Z,16.60
2022-09-07T21:16:37.508Z,16.60
2022-09-07T21:19:07.266Z,16.50
2022-09-07T21:21:38.852Z,16.50
2022-09-07T21:24:12.478Z,16.50
2022-09-07T21:26:39.229Z,16.50
2022-09-07T21:29:06.018Z,16.50
2022-09-07T21:31:33.898Z,16.40
2022-09-07T21:34:02.335Z,16.30
2022-09-07T21:36:30.101Z,16.30
2022-09-07T21:38:59.742Z,16.30
2022-09-07T21:41:26.755Z,16.30
2022-09-07T21:44:00.908Z,16.30
2022-09-07T21:46:29.142Z,16.30
2022-09-07T21:48:57.386Z,16.20
2022-09-07T21:51:25.820Z,16.10
2022-09-07T21:53:53.814Z,16.10
2022-09-07T21:56:21.043Z,16.00
2022-09-07T21:58:48.120Z,15.90
2022-09-07T22:01:17.418Z,15.90
2022-09-07T22:03:46.615Z,15.90
2022-09-07T22:06:14.762Z,15.80
2022-09-07T22:08:42.080Z,15.70
2022-09-07T22:11:17.790Z,15.60
2022-09-07T22:13:45.476Z,15.60
2022-09-07T22:16:13.357Z,15.60
2022-09-07T22:18:43.991Z,15.70
2022-09-07T22:21:20.741Z,15.60
2022-09-07T22:23:50.795Z,15.60
2022-09-07T22:26:20.372Z,15.60
2022-09-07T22:28:47.448Z,15.50
2022-09-07T22:31:20.931Z,15.50
2022-09-07T22:33:49.196Z,15.50
2022-09-07T22:36:17.552Z,15.50
2022-09-07T22:38:55.565Z,15.50
2022-09-07T22:41:26.187Z,15.50
2022-09-07T22:43:59.932Z,15.50
2022-09-07T22:46:28.584Z,15.50
2022-09-07T22:49:00.195Z,15.50
2022-09-07T22:51:27.973Z,15.50
2022-09-07T22:53:55.841Z,15.50
2022-09-07T22:56:28.694Z,15.50
2022-09-07T22:58:58.290Z,15.40
2022-09-07T23:01:26.765Z,15.40
2022-09-07T23:03:54.631Z,15.40
2022-09-07T23:06:26.234Z,15.40
2022-09-07T23:08:54.493Z,15.30
2022-09-07T23:11:21.465Z,15.30
2022-09-07T23:14:00.292Z,15.30
2022-09-07T23:16:28.256Z,15.30
2022-09-07T23:18:56.896Z,15.30
2022-09-07T23:21:23.745Z,15.20
2022-09-07T23:23:58.008Z,15.20
2022-09-07T23:26:29.306Z,15.20
2022-09-07T23:28:58.589Z,15.20
2022-09-07T23:31:29.939Z,15.20
2022-09-07T23:33:57.596Z,15.20
2022-09-07T23:36:24.907Z,15.10
2022-09-07T23:38:54.674Z,15.20
2022-09-07T23:41:21.907Z,15.10
2022-09-07T23:43:48.962Z,15.10
2022-09-07T23:46:16.205Z,15.10
2022-09-07T23:48:47.274Z,15.10
2022-09-07T23:51:14.631Z,15.10
2022-09-07T23:53:41.454Z,15.00
2022-09-07T23:56:08.259Z,14.90
2022-09-07T23:58:34.977Z,14.90
